createdAt,value
2023-02-20T00:00:38.347Z,73.21
2023-02-20T00:01:38.324Z,73.21
2023-02-20T00:02:38.360Z,73.59
2023-02-20T00:03:38.351Z,73.59
2023-02-20T00:04:38.293Z,73.79
2023-02-20T00:05:38.315Z,74.24
2023-02-20T00:06:38.260Z,74.31
2023-02-20T00:07:38.253Z,74.64
2023-02-20T00:08:38.272Z,74.97
2023-02-20T00:09:38.219Z,75.51
2023-02-20T00:10:38.210Z,75.71
2023-02-20T00:11:38.991Z,75.99
2023-02-20T00:12:38.212Z,75.31
2023-02-20T00:13:38.236Z,75.17
2023-02-20T00:14:38.156Z,74.77
2023-02-20T00:15:38.162Z,74.24
2023-02-20T00:16:38.129Z,73.85
2023-02-20T00:17:38.163Z,72.83
2023-02-20T00:18:38.123Z,72.51
2023-02-20T00:19:38.094Z,72.58
2023-02-20T00:20:38.142Z,72.77
2023-02-20T00:21:38.075Z,72.39
2023-02-20T00:22:38.070Z,72.51
2023-02-20T00:23:38.079Z,71.71
2023-02-20T00:24:38.037Z,71.65
2023-02-20T00:25:38.014Z,71.65
2023-02-20T00:26:38.015Z,71.16
2023-02-20T00:27:38.029Z,71.16
2023-02-20T00:28:37.983Z,71.41
2023-02-20T00:29:38.002Z,71.65
2023-02-20T00:30:37.990Z,71.77
2023-02-20T00:31:37.965Z,72.39
2023-02-20T00:32:37.939Z,72.51
2023-02-20T00:33:38.015Z,72.89
2023-02-20T00:34:37.917Z,73.59
2023-02-20T00:35:37.924Z,74.24
2023-02-20T00:36:37.889Z,75.31
2023-02-20T00:37:37.867Z,75.38
2023-02-20T00:38:37.877Z,75.24
2023-02-20T00:39:37.860Z,75.38
2023-02-20T00:40:37.823Z,75.51
2023-02-20T00:41:37.858Z,75.24
2023-02-20T00:42:37.803Z,74.77
2023-02-20T00:43:37.852Z,74.31
2023-02-20T00:44:37.804Z,73.21
2023-02-20T00:45:37.761Z,73.02
2023-02-20T00:46:37.804Z,72.89
2023-02-20T00:47:37.779Z,72.70
2023-02-20T00:48:37.760Z,72.70
2023-02-20T00:49:37.745Z,72.45
2023-02-20T00:50:37.708Z,72.96
2023-02-20T00:51:37.685Z,72.51
2023-02-20T00:52:37.678Z,73.02
2023-02-20T00:53:38.036Z,72.70
2023-02-20T00:54:37.648Z,72.58
2023-02-20T00:55:37.636Z,72.26
2023-02-20T00:56:37.625Z,72.45
2023-02-20T00:57:37.616Z,72.45
2023-02-20T00:58:37.594Z,72.89
2023-02-20T00:59:37.632Z,72.89
2023-02-20T01:00:37.573Z,73.79
2023-02-20T01:01:37.630Z,73.34
2023-02-20T01:02:37.577Z,73.53
2023-02-20T01:03:37.533Z,74.05
2023-02-20T01:04:37.543Z,73.46
2023-02-20T01:05:37.533Z,73.21
2023-02-20T01:06:37.496Z,73.79
2023-02-20T01:07:37.478Z,73.46
2023-02-20T01:08:37.466Z,73.79
2023-02-20T01:09:37.459Z,73.79
2023-02-20T01:10:37.456Z,73.85
2023-02-20T01:11:37.503Z,73.98
2023-02-20T01:12:37.405Z,74.38
2023-02-20T01:13:37.412Z,74.31
2023-02-20T01:14:37.400Z,74.31
2023-02-20T01:15:37.379Z,74.71
2023-02-20T01:16:37.382Z,74.84
2023-02-20T01:17:37.383Z,74.57
2023-02-20T01:18:37.340Z,74.05
2023-02-20T01:19:37.339Z,74.64
2023-02-20T01:20:37.308Z,75.24
2023-02-20T01:21:37.297Z,75.44
2023-02-20T01:22:37.314Z,75.78
2023-02-20T01:23:37.314Z,75.04
2023-02-20T01:24:37.264Z,75.38
2023-02-20T01:25:37.246Z,75.65
2023-02-20T01:26:37.249Z,76.26
2023-02-20T01:27:37.255Z,75.92
2023-02-20T01:28:37.205Z,76.06
2023-02-20T01:29:37.242Z,76.68
2023-02-20T01:30:37.232Z,77.10
2023-02-20T01:31:37.324Z,77.32
2023-02-20T01:32:38.168Z,76.75
2023-02-20T01:33:37.139Z,76.40
2023-02-20T01:34:37.176Z,76.75
2023-02-20T01:35:37.154Z,76.33
2023-02-20T01:36:37.133Z,76.47
2023-02-20T01:37:37.141Z,76.47
2023-02-20T01:38:37.118Z,76.47
2023-02-20T01:39:37.092Z,75.78
2023-02-20T01:40:37.090Z,75.78
2023-02-20T01:41:37.090Z,75.92
2023-02-20T01:42:37.071Z,75.17
2023-02-20T01:43:37.020Z,75.78
2023-02-20T01:44:37.007Z,75.38
2023-02-20T01:45:36.998Z,75.58
2023-02-20T01:46:36.984Z,76.06
2023-02-20T01:47:37.011Z,75.92
2023-02-20T01:48:36.978Z,75.85
2023-02-20T01:49:36.949Z,75.92
2023-02-20T01:50:36.932Z,75.58
2023-02-20T01:51:36.916Z,75.78
2023-02-20T01:52:36.911Z,75.58
2023-02-20T01:53:36.948Z,76.20
2023-02-20T01:54:37.070Z,76.26
2023-02-20T01:55:36.858Z,75.99
2023-02-20T01:56:36.850Z,75.65
2023-02-20T01:57:36.856Z,75.51
2023-02-20T01:58:36.827Z,75.11
2023-02-20T01:59:36.845Z,75.51
2023-02-20T02:00:36.817Z,75.58
2023-02-20T02:01:50.623Z,75.51
2023-02-20T02:02:36.783Z,75.31
2023-02-20T02:03:36.764Z,75.78
2023-02-20T02:04:36.754Z,75.11
2023-02-20T02:05:36.774Z,75.11
2023-02-20T02:06:36.726Z,74.31
2023-02-20T02:07:36.771Z,74.51
2023-02-20T02:08:36.707Z,73.98
2023-02-20T02:09:36.694Z,74.11
2023-02-20T02:10:36.674Z,75.11
2023-02-20T02:11:36.684Z,74.84
2023-02-20T02:12:36.650Z,75.17
2023-02-20T02:13:36.623Z,75.24
2023-02-20T02:14:36.618Z,75.17
2023-02-20T02:15:36.611Z,75.24
2023-02-20T02:16:36.670Z,74.90
2023-02-20T02:17:36.619Z,74.77
2023-02-20T02:18:36.559Z,74.84
2023-02-20T02:19:36.572Z,74.57
2023-02-20T02:20:36.543Z,74.57
2023-02-20T02:21:36.565Z,74.44
2023-02-20T02:22:36.514Z,74.51
2023-02-20T02:23:36.537Z,74.57
2023-02-20T02:24:36.485Z,74.24
2023-02-20T02:25:36.499Z,74.05
2023-02-20T02:26:36.487Z,74.51
2023-02-20T02:27:36.462Z,74.44
2023-02-20T02:28:36.527Z,74.31
2023-02-20T02:29:36.457Z,74.57
2023-02-20T02:30:36.496Z,74.31
2023-02-20T02:31:36.574Z,74.44
2023-02-20T02:32:36.393Z,74.11
2023-02-20T02:33:36.549Z,73.92
2023-02-20T02:34:36.358Z,74.05
2023-02-20T02:35:36.400Z,74.11
2023-02-20T02:36:36.397Z,74.31
2023-02-20T02:37:36.328Z,74.51
2023-02-20T02:38:36.438Z,74.11
2023-02-20T02:39:36.306Z,73.85
2023-02-20T02:40:36.287Z,73.27
2023-02-20T02:41:36.298Z,73.27
2023-02-20T02:42:36.259Z,73.59
2023-02-20T02:43:36.238Z,73.15
2023-02-20T02:44:36.243Z,73.02
2023-02-20T02:45:36.244Z,72.70
2023-02-20T02:46:36.225Z,72.70
2023-02-20T02:47:36.228Z,72.70
2023-02-20T02:48:36.192Z,72.51
2023-02-20T02:49:36.179Z,72.51
2023-02-20T02:50:36.165Z,72.83
2023-02-20T02:51:36.145Z,72.45
2023-02-20T02:52:36.158Z,72.02
2023-02-20T02:53:36.163Z,71.89
2023-02-20T02:54:36.116Z,71.47
2023-02-20T02:55:36.116Z,71.53
2023-02-20T02:56:36.091Z,71.47
2023-02-20T02:57:36.097Z,71.16
2023-02-20T02:58:36.094Z,70.98
2023-02-20T02:59:36.090Z,71.16
2023-02-20T03:00:36.041Z,71.16
2023-02-20T03:01:36.027Z,71.47
2023-02-20T03:02:36.177Z,71.47
2023-02-20T03:03:35.997Z,71.65
2023-02-20T03:04:35.983Z,71.59
2023-02-20T03:05:35.995Z,71.89
2023-02-20T03:06:35.958Z,71.96
2023-02-20T03:07:35.975Z,72.02
2023-02-20T03:08:35.936Z,72.45
2023-02-20T03:09:35.940Z,72.20
2023-02-20T03:10:35.899Z,72.26
2023-02-20T03:11:35.923Z,72.33
2023-02-20T03:12:35.876Z,72.14
2023-02-20T03:13:35.870Z,72.58
2023-02-20T03:14:35.847Z,72.51
2023-02-20T03:15:35.838Z,72.77
2023-02-20T03:16:35.891Z,72.70
2023-02-20T03:17:35.863Z,72.39
2023-02-20T03:18:35.810Z,72.64
2023-02-20T03:19:35.802Z,72.45
2023-02-20T03:20:35.784Z,72.33
2023-02-20T03:21:35.772Z,72.58
2023-02-20T03:22:35.756Z,72.96
2023-02-20T03:23:35.774Z,72.83
2023-02-20T03:24:35.737Z,73.27
2023-02-20T03:25:35.724Z,72.96
2023-02-20T03:26:35.709Z,73.46
2023-02-20T03:27:35.696Z,73.40
2023-02-20T03:28:35.683Z,73.21
2023-02-20T03:29:35.708Z,73.53
2023-02-20T03:30:35.663Z,73.72
2023-02-20T03:31:35.715Z,73.79
2023-02-20T03:32:35.629Z,73.66
2023-02-20T03:33:35.630Z,73.92
2023-02-20T03:34:35.620Z,73.79
2023-02-20T03:35:35.629Z,73.66
2023-02-20T03:36:35.576Z,73.85
2023-02-20T03:37:35.570Z,73.08
2023-02-20T03:38:35.562Z,73.21
2023-02-20T03:39:35.538Z,73.40
2023-02-20T03:40:35.519Z,73.66
2023-02-20T03:41:35.583Z,73.40
2023-02-20T03:42:35.540Z,73.85
2023-02-20T03:43:35.502Z,74.24
2023-02-20T03:44:35.482Z,73.85
2023-02-20T03:45:35.483Z,74.31
2023-02-20T03:46:35.466Z,74.71
2023-02-20T03:47:35.722Z,74.97
2023-02-20T03:48:35.425Z,75.44
2023-02-20T03:49:35.419Z,75.78
2023-02-20T03:50:35.393Z,76.13
2023-02-20T03:51:35.390Z,76.20
2023-02-20T03:52:35.386Z,76.33
2023-02-20T03:53:35.419Z,76.40
2023-02-20T03:54:35.362Z,76.61
2023-02-20T03:55:35.331Z,76.89
2023-02-20T03:56:35.330Z,77.32
2023-02-20T03:57:35.316Z,77.67
2023-02-20T03:58:35.302Z,78.11
2023-02-20T03:59:35.497Z,77.89
2023-02-20T04:00:35.278Z,78.32
2023-02-20T04:01:35.378Z,78.69
2023-02-20T04:02:35.298Z,78.99
2023-02-20T04:03:35.248Z,78.47
2023-02-20T04:04:35.225Z,78.77
2023-02-20T04:05:35.250Z,79.29
2023-02-20T04:06:35.205Z,79.29
2023-02-20T04:07:35.185Z,79.96
2023-02-20T04:08:35.179Z,80.12
2023-02-20T04:09:35.170Z,80.27
2023-02-20T04:10:35.158Z,80.19
2023-02-20T04:11:35.179Z,80.89
2023-02-20T04:12:35.112Z,81.20
2023-02-20T04:13:35.117Z,81.28
2023-02-20T04:14:35.127Z,81.51
2023-02-20T04:15:35.091Z,81.51
2023-02-20T04:16:35.084Z,81.99
2023-02-20T04:17:35.108Z,81.60
2023-02-20T04:18:35.052Z,82.31
2023-02-20T04:19:35.053Z,82.23
2023-02-20T04:20:35.038Z,81.99
2023-02-20T04:21:35.005Z,81.99
2023-02-20T04:22:34.997Z,82.47
2023-02-20T04:23:35.017Z,81.83
2023-02-20T04:24:34.989Z,81.67
2023-02-20T04:25:34.953Z,81.44
2023-02-20T04:26:34.935Z,81.20
2023-02-20T04:27:34.926Z,80.89
2023-02-20T04:28:34.919Z,81.36
2023-02-20T04:29:34.946Z,81.04
2023-02-20T04:30:34.953Z,80.65
2023-02-20T04:31:34.935Z,80.42
2023-02-20T04:32:34.872Z,80.19
2023-02-20T04:33:34.865Z,79.51
2023-02-20T04:34:34.835Z,79.29
2023-02-20T04:35:34.854Z,78.91
2023-02-20T04:36:34.810Z,78.54
2023-02-20T04:37:34.804Z,78.40
2023-02-20T04:38:34.815Z,78.18
2023-02-20T04:39:34.770Z,78.25
2023-02-20T04:40:34.783Z,77.96
2023-02-20T04:41:34.773Z,78.11
2023-02-20T04:42:34.859Z,78.04
2023-02-20T04:43:34.736Z,78.18
2023-02-20T04:44:34.732Z,77.96
2023-02-20T04:45:34.707Z,78.11
2023-02-20T04:46:34.681Z,78.25
2023-02-20T04:47:34.703Z,78.04
2023-02-20T04:48:34.670Z,78.18
2023-02-20T04:49:34.648Z,78.62
2023-02-20T04:50:34.640Z,78.32
2023-02-20T04:51:34.630Z,78.40
2023-02-20T04:52:34.604Z,78.69
2023-02-20T04:53:34.627Z,78.99
2023-02-20T04:54:34.579Z,78.69
2023-02-20T04:55:34.577Z,78.77
2023-02-20T04:56:34.550Z,78.54
2023-02-20T04:57:34.533Z,78.77
2023-02-20T04:58:34.532Z,78.84
2023-02-20T04:59:34.544Z,78.84
2023-02-20T05:00:34.520Z,78.91
2023-02-20T05:01:34.509Z,78.84
2023-02-20T05:02:34.477Z,79.36
2023-02-20T05:03:34.475Z,79.66
2023-02-20T05:04:34.533Z,79.36
2023-02-20T05:05:34.472Z,79.59
2023-02-20T05:06:34.442Z,79.81
2023-02-20T05:07:34.405Z,79.81
2023-02-20T05:08:34.403Z,80.27
2023-02-20T05:09:34.394Z,80.27
2023-02-20T05:10:34.396Z,80.97
2023-02-20T05:11:34.391Z,81.04
2023-02-20T05:12:34.358Z,81.28
2023-02-20T05:13:34.345Z,81.75
2023-02-20T05:14:34.337Z,82.07
2023-02-20T05:15:34.330Z,81.83
2023-02-20T05:16:34.318Z,82.15
2023-02-20T05:17:34.324Z,82.88
2023-02-20T05:18:34.280Z,82.31
2023-02-20T05:19:34.281Z,82.39
2023-02-20T05:20:34.250Z,82.80
2023-02-20T05:21:34.260Z,82.15
2023-02-20T05:22:34.227Z,82.72
2023-02-20T05:23:34.247Z,82.15
2023-02-20T05:24:34.223Z,82.56
2023-02-20T05:25:34.186Z,82.80
2023-02-20T05:26:34.216Z,83.21
2023-02-20T05:27:34.191Z,83.13
2023-02-20T05:28:34.165Z,83.21
2023-02-20T05:29:34.170Z,82.88
2023-02-20T05:30:34.183Z,82.80
2023-02-20T05:31:34.252Z,83.71
2023-02-20T05:32:34.129Z,84.04
2023-02-20T05:33:34.097Z,84.29
2023-02-20T05:34:34.080Z,83.96
2023-02-20T05:35:34.124Z,83.96
2023-02-20T05:36:34.064Z,84.13
2023-02-20T05:37:34.034Z,84.46
2023-02-20T05:38:34.015Z,83.87
2023-02-20T05:39:34.004Z,84.21
2023-02-20T05:40:34.032Z,83.96
2023-02-20T05:41:34.015Z,84.21
2023-02-20T05:42:35.597Z,84.46
2023-02-20T05:43:33.954Z,85.15
2023-02-20T05:44:34.936Z,85.50
2023-02-20T05:45:33.951Z,85.41
2023-02-20T05:46:33.972Z,86.37
2023-02-20T05:47:33.933Z,86.73
2023-02-20T05:48:33.902Z,86.73
2023-02-20T05:49:33.892Z,87.27
2023-02-20T05:50:33.891Z,86.73
2023-02-20T05:51:34.339Z,87.82
2023-02-20T05:52:33.869Z,87.72
2023-02-20T05:53:33.889Z,87.45
2023-02-20T05:54:33.829Z,87.72
2023-02-20T05:55:33.823Z,87.09
2023-02-20T05:56:33.813Z,87.45
2023-02-20T05:57:33.803Z,86.55
2023-02-20T05:58:33.769Z,86.82
2023-02-20T05:59:33.784Z,86.55
2023-02-20T06:00:33.772Z,86.82
2023-02-20T06:01:33.743Z,86.82
2023-02-20T06:02:33.742Z,87.45
2023-02-20T06:03:33.788Z,87.72
2023-02-20T06:04:33.730Z,87.82
2023-02-20T06:05:33.733Z,88.46
2023-02-20T06:06:33.673Z,87.91
2023-02-20T06:07:33.661Z,88.93
2023-02-20T06:08:33.656Z,88.37
2023-02-20T06:09:33.638Z,88.56
2023-02-20T06:10:33.636Z,88.46
2023-02-20T06:11:33.663Z,88.37
2023-02-20T06:12:33.607Z,89.21
2023-02-20T06:13:33.610Z,89.69
2023-02-20T06:14:33.561Z,90.07
2023-02-20T06:15:33.555Z,90.07
2023-02-20T06:16:33.591Z,90.46
2023-02-20T06:17:33.564Z,90.27
2023-02-20T06:18:33.540Z,90.46
2023-02-20T06:19:33.530Z,90.37
2023-02-20T06:20:33.503Z,89.98
2023-02-20T06:21:33.487Z,89.21
2023-02-20T06:22:33.476Z,88.93
2023-02-20T06:23:33.493Z,88.37
2023-02-20T06:24:33.438Z,88.19
2023-02-20T06:25:33.424Z,88.37
2023-02-20T06:26:33.415Z,87.63
2023-02-20T06:27:33.417Z,88.84
2023-02-20T06:28:33.428Z,88.37
2023-02-20T06:29:33.418Z,87.45
2023-02-20T06:30:33.414Z,88.00
2023-02-20T06:31:33.443Z,87.72
2023-02-20T06:32:33.348Z,87.82
2023-02-20T06:33:33.341Z,88.00
2023-02-20T06:34:33.321Z,87.82
2023-02-20T06:35:33.369Z,86.82
2023-02-20T06:36:33.928Z,86.02
2023-02-20T06:37:33.291Z,85.06
2023-02-20T06:38:33.275Z,84.04
2023-02-20T06:39:33.275Z,82.88
2023-02-20T06:40:33.247Z,81.99
2023-02-20T06:41:33.271Z,80.89
2023-02-20T06:42:33.217Z,79.59
2023-02-20T06:43:33.217Z,78.62
2023-02-20T06:44:33.214Z,77.96
2023-02-20T06:45:33.189Z,77.53
2023-02-20T06:46:33.255Z,77.03
2023-02-20T06:47:33.206Z,76.75
2023-02-20T06:48:33.172Z,76.13
2023-02-20T06:49:33.143Z,76.20
2023-02-20T06:50:33.129Z,75.92
2023-02-20T06:51:33.111Z,75.24
2023-02-20T06:52:33.093Z,74.38
2023-02-20T06:53:33.121Z,74.90
2023-02-20T06:54:33.081Z,74.57
2023-02-20T06:55:33.052Z,75.17
2023-02-20T06:56:33.066Z,74.97
2023-02-20T06:57:33.038Z,76.75
2023-02-20T06:58:33.027Z,76.20
2023-02-20T06:59:33.083Z,75.58
2023-02-20T07:00:33.027Z,76.96
2023-02-20T07:01:32.982Z,79.59
2023-02-20T07:02:32.966Z,82.23
2023-02-20T07:03:32.973Z,83.46
2023-02-20T07:04:32.949Z,83.54
2023-02-20T07:05:32.965Z,86.11
2023-02-20T07:06:32.916Z,87.09
2023-02-20T07:07:32.910Z,86.91
2023-02-20T07:08:32.889Z,86.29
2023-02-20T07:09:32.903Z,85.93
2023-02-20T07:10:32.870Z,85.76
2023-02-20T07:11:32.894Z,87.45
2023-02-20T07:12:32.841Z,88.37
2023-02-20T07:13:32.839Z,87.54
2023-02-20T07:14:32.814Z,85.06
2023-02-20T07:15:32.810Z,82.96
2023-02-20T07:16:32.908Z,82.64
2023-02-20T07:17:32.807Z,86.11
2023-02-20T07:18:32.764Z,86.73
2023-02-20T07:19:32.743Z,87.27
2023-02-20T07:20:32.734Z,90.76
2023-02-20T07:21:32.736Z,91.05
2023-02-20T07:22:32.715Z,88.28
2023-02-20T07:23:32.719Z,88.56
2023-02-20T07:24:32.686Z,88.93
2023-02-20T07:25:32.690Z,86.91
2023-02-20T07:26:32.683Z,86.82
2023-02-20T07:27:32.654Z,85.84
2023-02-20T07:28:32.630Z,85.84
2023-02-20T07:29:32.656Z,86.73
2023-02-20T07:30:32.698Z,87.45
2023-02-20T07:31:32.700Z,87.18
2023-02-20T07:32:32.573Z,88.19
2023-02-20T07:33:32.572Z,90.46
2023-02-20T07:34:32.560Z,93.07
2023-02-20T07:35:32.573Z,93.58
2023-02-20T07:36:32.601Z,90.37
2023-02-20T07:37:32.520Z,87.18
2023-02-20T07:38:32.496Z,83.79
2023-02-20T07:39:32.477Z,82.80
2023-02-20T07:40:32.475Z,80.58
2023-02-20T07:41:32.505Z,77.18
2023-02-20T07:42:32.444Z,72.02
2023-02-20T07:43:32.435Z,71.65
2023-02-20T07:44:32.433Z,73.40
2023-02-20T07:45:32.458Z,74.77
2023-02-20T07:46:32.413Z,75.85
2023-02-20T07:47:32.482Z,74.44
2023-02-20T07:48:32.364Z,72.70
2023-02-20T07:49:32.368Z,70.33
2023-02-20T07:50:32.342Z,71.41
2023-02-20T07:51:32.349Z,72.45
2023-02-20T07:52:32.321Z,72.14
2023-02-20T07:53:32.321Z,72.77
2023-02-20T07:54:32.291Z,74.84
2023-02-20T07:55:32.288Z,75.51
2023-02-20T07:56:32.257Z,76.47
2023-02-20T07:57:32.276Z,74.64
2023-02-20T07:58:32.234Z,71.16
2023-02-20T07:59:32.264Z,72.08
2023-02-20T08:00:32.230Z,76.61
2023-02-20T08:01:32.246Z,78.84
2023-02-20T08:02:32.194Z,81.67
2023-02-20T08:03:32.183Z,81.83
2023-02-20T08:04:32.164Z,82.96
2023-02-20T08:05:40.236Z,84.13
2023-02-20T08:06:32.178Z,83.62
2023-02-20T08:07:32.126Z,83.62
2023-02-20T08:08:32.130Z,84.46
2023-02-20T08:09:32.100Z,85.84
2023-02-20T08:10:32.088Z,87.18
2023-02-20T08:11:32.118Z,84.63
2023-02-20T08:12:32.062Z,84.72
2023-02-20T08:13:32.047Z,85.84
2023-02-20T08:14:32.021Z,85.58
2023-02-20T08:15:32.047Z,83.96
2023-02-20T08:16:32.076Z,84.72
2023-02-20T08:17:45.533Z,84.21
2023-02-20T08:18:31.986Z,84.72
2023-02-20T08:19:31.954Z,85.41
2023-02-20T08:20:31.957Z,84.63
2023-02-20T08:21:31.945Z,82.64
2023-02-20T08:22:41.472Z,85.24
2023-02-20T08:23:31.947Z,85.50
2023-02-20T08:24:31.917Z,84.29
2023-02-20T08:25:31.888Z,86.55
2023-02-20T08:26:31.884Z,86.11
2023-02-20T08:27:31.880Z,84.29
2023-02-20T08:28:31.857Z,85.06
2023-02-20T08:29:31.889Z,84.63
2023-02-20T08:30:31.885Z,83.05
2023-02-20T08:31:33.193Z,84.89
2023-02-20T08:32:31.863Z,84.04
2023-02-20T08:33:31.799Z,81.75
2023-02-20T08:34:31.778Z,79.74
2023-02-20T08:35:31.802Z,81.51
2023-02-20T08:36:31.759Z,82.64
2023-02-20T08:37:31.760Z,85.15
2023-02-20T08:38:31.730Z,85.76
2023-02-20T08:39:31.710Z,84.89
2023-02-20T08:40:31.683Z,81.91
2023-02-20T08:41:31.761Z,81.67
2023-02-20T08:42:31.669Z,83.29
2023-02-20T08:43:31.661Z,86.02
2023-02-20T08:44:31.644Z,86.55
2023-02-20T08:45:31.635Z,85.50
2023-02-20T08:46:31.616Z,86.73
2023-02-20T08:47:31.643Z,86.82
2023-02-20T08:48:31.600Z,86.29
2023-02-20T08:49:31.569Z,85.58
2023-02-20T08:50:31.569Z,84.81
2023-02-20T08:51:31.544Z,82.96
2023-02-20T08:52:31.530Z,82.31
2023-02-20T08:53:31.587Z,83.62
2023-02-20T08:54:31.521Z,86.55
2023-02-20T08:55:31.503Z,89.50
2023-02-20T08:56:31.482Z,90.95
2023-02-20T08:57:31.492Z,90.66
2023-02-20T08:58:31.453Z,90.17
2023-02-20T08:59:31.494Z,90.27
2023-02-20T09:00:33.247Z,91.85
2023-02-20T09:01:31.451Z,92.86
2023-02-20T09:02:31.432Z,93.79
2023-02-20T09:03:31.394Z,92.76
2023-02-20T09:04:31.384Z,92.86
2023-02-20T09:05:31.395Z,93.07
2023-02-20T09:06:31.389Z,92.35
2023-02-20T09:07:31.342Z,92.05
2023-02-20T09:08:31.337Z,91.95
2023-02-20T09:09:31.320Z,89.12
2023-02-20T09:10:31.300Z,92.05
2023-02-20T09:11:31.327Z,93.90
2023-02-20T09:12:31.271Z,94.53
2023-02-20T09:13:31.273Z,92.35
2023-02-20T09:14:31.246Z,89.88
2023-02-20T09:15:31.232Z,89.69
2023-02-20T09:16:31.234Z,91.25
2023-02-20T09:17:31.283Z,90.27
2023-02-20T09:18:31.202Z,88.00
2023-02-20T09:19:31.205Z,90.66
2023-02-20T09:20:31.201Z,90.85
2023-02-20T09:21:31.166Z,91.75
2023-02-20T09:22:31.155Z,87.45
2023-02-20T09:23:31.180Z,86.55
2023-02-20T09:24:31.118Z,86.91
2023-02-20T09:25:31.129Z,88.28
2023-02-20T09:26:31.090Z,89.03
2023-02-20T09:27:31.089Z,87.91
2023-02-20T09:28:31.091Z,90.27
2023-02-20T09:29:31.090Z,90.95
2023-02-20T09:30:31.124Z,88.93
2023-02-20T09:31:31.115Z,86.46
2023-02-20T09:32:31.130Z,85.06
2023-02-20T09:33:31.021Z,84.21
2023-02-20T09:34:31.008Z,85.32
2023-02-20T09:35:31.041Z,85.50
2023-02-20T09:36:31.013Z,86.20
2023-02-20T09:37:30.967Z,85.76
2023-02-20T09:38:30.980Z,85.24
2023-02-20T09:39:30.948Z,84.72
2023-02-20T09:40:30.945Z,82.88
2023-02-20T09:41:30.928Z,81.04
2023-02-20T09:42:30.893Z,80.19
2023-02-20T09:43:30.883Z,78.91
2023-02-20T09:44:30.864Z,77.75
2023-02-20T09:45:30.848Z,78.47
2023-02-20T09:46:30.840Z,74.18
2023-02-20T09:47:30.875Z,77.10
2023-02-20T09:48:30.818Z,77.89
2023-02-20T09:49:30.808Z,77.46
2023-02-20T09:50:30.791Z,78.40
2023-02-20T09:51:30.784Z,78.84
2023-02-20T09:52:30.773Z,76.96
2023-02-20T09:53:30.809Z,74.31
2023-02-20T09:54:30.745Z,76.89
2023-02-20T09:55:30.720Z,77.39
2023-02-20T09:56:30.733Z,78.69
2023-02-20T09:57:30.713Z,78.47
2023-02-20T09:58:30.693Z,78.11
2023-02-20T09:59:30.720Z,76.61
2023-02-20T10:00:30.687Z,78.04
2023-02-20T10:01:30.651Z,77.60
2023-02-20T10:02:30.778Z,77.53
2023-02-20T10:03:30.639Z,77.03
2023-02-20T10:04:30.615Z,77.60
2023-02-20T10:05:30.632Z,78.77
2023-02-20T10:06:30.622Z,78.77
2023-02-20T10:07:30.590Z,78.91
2023-02-20T10:08:30.570Z,79.66
2023-02-20T10:09:30.561Z,79.74
2023-02-20T10:10:30.536Z,80.42
2023-02-20T10:11:30.551Z,79.59
2023-02-20T10:12:30.502Z,78.32
2023-02-20T10:13:30.495Z,76.26
2023-02-20T10:14:30.482Z,75.38
2023-02-20T10:15:30.477Z,74.57
2023-02-20T10:16:30.533Z,71.71
2023-02-20T10:17:30.479Z,70.86
2023-02-20T10:18:30.429Z,69.69
2023-02-20T10:19:30.417Z,69.23
2023-02-20T10:20:30.419Z,67.29
2023-02-20T10:21:30.416Z,67.02
2023-02-20T10:22:30.381Z,66.86
2023-02-20T10:23:30.424Z,66.76
2023-02-20T10:24:30.355Z,65.61
2023-02-20T10:25:30.357Z,64.21
2023-02-20T10:26:30.335Z,62.03
2023-02-20T10:27:30.332Z,62.53
2023-02-20T10:28:30.304Z,62.17
2023-02-20T10:29:30.332Z,61.12
2023-02-20T10:30:30.303Z,61.30
2023-02-20T10:31:30.447Z,62.07
2023-02-20T10:32:30.264Z,61.26
2023-02-20T10:33:30.246Z,62.40
2023-02-20T10:34:30.258Z,62.63
2023-02-20T10:35:30.270Z,61.98
2023-02-20T10:36:30.244Z,62.49
2023-02-20T10:37:41.899Z,61.39
2023-02-20T10:38:30.206Z,60.55
2023-02-20T10:39:30.229Z,60.42
2023-02-20T10:40:30.172Z,60.29
2023-02-20T10:41:30.177Z,59.31
2023-02-20T10:42:30.155Z,58.61
2023-02-20T10:43:30.132Z,59.10
2023-02-20T10:44:32.173Z,58.12
2023-02-20T10:45:30.096Z,57.81
2023-02-20T10:46:36.941Z,57.84
2023-02-20T10:47:30.127Z,56.90
2023-02-20T10:48:30.067Z,57.37
2023-02-20T10:49:30.063Z,57.14
2023-02-20T10:50:30.040Z,57.29
2023-02-20T10:51:30.038Z,57.96
2023-02-20T10:52:34.518Z,57.02
2023-02-20T10:53:30.030Z,56.07
2023-02-20T10:54:29.986Z,55.81
2023-02-20T10:55:29.976Z,55.62
2023-02-20T10:56:29.967Z,55.15
2023-02-20T10:57:29.955Z,55.11
2023-02-20T10:58:29.948Z,54.90
2023-02-20T10:59:29.996Z,54.97
2023-02-20T11:00:29.904Z,55.19
2023-02-20T11:01:29.979Z,54.90
2023-02-20T11:02:29.893Z,54.93
2023-02-20T11:03:29.870Z,54.65
2023-02-20T11:04:29.871Z,53.53
2023-02-20T11:05:29.878Z,52.11
2023-02-20T11:06:30.614Z,52.30
2023-02-20T11:07:29.842Z,52.69
2023-02-20T11:08:29.811Z,52.63
2023-02-20T11:09:29.818Z,53.50
2023-02-20T11:10:29.779Z,52.50
2023-02-20T11:11:29.814Z,52.11
2023-02-20T11:12:32.293Z,52.30
2023-02-20T11:13:29.740Z,52.08
2023-02-20T11:14:39.841Z,51.12
2023-02-20T11:15:29.784Z,49.67
2023-02-20T11:16:29.719Z,49.50
2023-02-20T11:17:29.738Z,50.18
2023-02-20T11:18:29.699Z,50.85
2023-02-20T11:19:29.727Z,50.82
2023-02-20T11:20:29.663Z,51.06
2023-02-20T11:21:29.663Z,51.50
2023-02-20T11:22:29.643Z,51.72
2023-02-20T11:23:29.673Z,51.56
2023-02-20T11:24:29.608Z,50.06
2023-02-20T11:25:29.606Z,50.69
2023-02-20T11:26:29.608Z,50.69
2023-02-20T11:27:29.624Z,51.03
2023-02-20T11:28:29.562Z,50.60
2023-02-20T11:29:29.602Z,50.72
2023-02-20T11:30:29.582Z,50.45
2023-02-20T11:31:29.747Z,50.76
2023-02-20T11:32:29.536Z,50.82
2023-02-20T11:33:29.503Z,50.42
2023-02-20T11:34:29.508Z,49.12
2023-02-20T11:35:29.558Z,49.07
2023-02-20T11:36:29.476Z,48.92
2023-02-20T11:37:29.477Z,48.25
2023-02-20T11:38:29.442Z,49.07
2023-02-20T11:39:29.425Z,49.35
2023-02-20T11:40:29.429Z,49.38
2023-02-20T11:41:29.452Z,50.85
2023-02-20T11:42:29.466Z,51.50
2023-02-20T11:43:29.380Z,51.50
2023-02-20T11:44:29.366Z,51.63
2023-02-20T11:45:29.370Z,52.24
2023-02-20T11:46:29.393Z,52.33
2023-02-20T11:47:30.629Z,52.56
2023-02-20T11:48:29.334Z,51.16
2023-02-20T11:49:29.315Z,51.16
2023-02-20T11:50:29.308Z,51.22
2023-02-20T11:51:29.298Z,50.60
2023-02-20T11:52:29.293Z,51.66
2023-02-20T11:53:29.289Z,53.13
2023-02-20T11:54:29.251Z,54.12
2023-02-20T11:55:29.242Z,54.15
2023-02-20T11:56:29.242Z,55.40
2023-02-20T11:57:29.208Z,56.14
2023-02-20T11:58:29.260Z,56.60
2023-02-20T11:59:29.241Z,57.21
2023-02-20T12:00:29.180Z,58.69
2023-02-20T12:01:29.165Z,59.91
2023-02-20T12:02:29.200Z,60.95
2023-02-20T12:03:29.139Z,61.08
2023-02-20T12:04:30.618Z,60.86
2023-02-20T12:05:29.223Z,62.49
2023-02-20T12:06:29.082Z,63.67
2023-02-20T12:07:29.190Z,65.30
2023-02-20T12:08:29.540Z,64.75
2023-02-20T12:09:29.074Z,64.45
2023-02-20T12:10:29.054Z,64.80
2023-02-20T12:11:29.065Z,65.30
2023-02-20T12:12:29.007Z,65.10
2023-02-20T12:13:29.008Z,65.71
2023-02-20T12:14:28.989Z,65.30
2023-02-20T12:15:28.989Z,65.97
2023-02-20T12:16:28.980Z,67.78
2023-02-20T12:17:28.997Z,68.67
2023-02-20T12:18:28.967Z,67.83
2023-02-20T12:19:28.929Z,65.82
2023-02-20T12:20:28.915Z,66.33
2023-02-20T12:21:28.906Z,65.82
2023-02-20T12:22:28.888Z,66.28
2023-02-20T12:23:28.897Z,66.44
2023-02-20T12:24:28.856Z,65.87
2023-02-20T12:25:28.863Z,65.87
2023-02-20T12:26:28.826Z,66.92
2023-02-20T12:27:28.843Z,68.72
2023-02-20T12:28:28.843Z,68.95
2023-02-20T12:29:28.825Z,69.86
2023-02-20T12:30:28.800Z,70.63
2023-02-20T12:31:28.967Z,69.69
2023-02-20T12:32:28.765Z,68.83
2023-02-20T12:33:28.752Z,69.00
2023-02-20T12:34:28.882Z,69.52
2023-02-20T12:35:28.787Z,69.23
2023-02-20T12:36:28.706Z,69.92
2023-02-20T12:37:28.700Z,70.80
2023-02-20T12:38:28.690Z,69.63
2023-02-20T12:39:28.763Z,70.21
2023-02-20T12:40:28.668Z,68.83
2023-02-20T12:41:28.693Z,68.72
2023-02-20T12:42:28.625Z,69.06
2023-02-20T12:43:28.634Z,69.34
2023-02-20T12:44:28.616Z,69.98
2023-02-20T12:45:28.605Z,70.92
2023-02-20T12:46:28.590Z,71.47
2023-02-20T12:47:28.613Z,73.46
2023-02-20T12:48:28.578Z,73.02
2023-02-20T12:49:28.554Z,73.27
2023-02-20T12:50:28.531Z,73.21
2023-02-20T12:51:28.574Z,75.24
2023-02-20T12:52:28.506Z,76.20